sensor_id;sensor_type;location;lat;lon;timestamp;temperature;humidity
64869;DHT22;51349;52.424;10.840;2022-07-25T00:04:17;21.90;71.40
64869;DHT22;51349;52.424;10.840;2022-07-25T00:09:18;21.70;71.60
64869;DHT22;51349;52.424;10.840;2022-07-25T00:14:18;21.60;73.00
64869;DHT22;51349;52.424;10.840;2022-07-25T00:19:19;21.50;73.90
64869;DHT22;51349;52.424;10.840;2022-07-25T00:24:20;21.30;72.90
64869;DHT22;51349;52.424;10.840;2022-07-25T00:29:20;21.20;74.00
64869;DHT22;51349;52.424;10.840;2022-07-25T00:34:21;21.10;74.00
64869;DHT22;51349;52.424;10.840;2022-07-25T00:39:21;21.10;75.50
64869;DHT22;51349;52.424;10.840;2022-07-25T00:44:28;21.00;73.60
64869;DHT22;51349;52.424;10.840;2022-07-25T00:49:28;20.90;74.70
64869;DHT22;51349;52.424;10.840;2022-07-25T00:54:29;20.90;73.80
64869;DHT22;51349;52.424;10.840;2022-07-25T00:59:30;20.90;73.70
64869;DHT22;51349;52.424;10.840;2022-07-25T01:04:31;20.70;76.30
64869;DHT22;51349;52.424;10.840;2022-07-25T01:09:31;20.60;75.00
64869;DHT22;51349;52.424;10.840;2022-07-25T01:14:32;20.50;76.00
64869;DHT22;51349;52.424;10.840;2022-07-25T01:19:33;20.30;78.10
64869;DHT22;51349;52.424;10.840;2022-07-25T01:24:34;20.50;75.40
64869;DHT22;51349;52.424;10.840;2022-07-25T01:29:35;20.30;76.30
64869;DHT22;51349;52.424;10.840;2022-07-25T01:34:35;20.30;77.00
64869;DHT22;51349;52.424;10.840;2022-07-25T01:39:36;20.50;75.90
64869;DHT22;51349;52.424;10.840;2022-07-25T01:44:37;20.50;75.30
64869;DHT22;51349;52.424;10.840;2022-07-25T01:49:37;20.50;75.30
64869;DHT22;51349;52.424;10.840;2022-07-25T01:54:38;20.70;75.00
64869;DHT22;51349;52.424;10.840;2022-07-25T01:59:39;20.80;74.60
64869;DHT22;51349;52.424;10.840;2022-07-25T02:04:40;21.10;73.10
64869;DHT22;51349;52.424;10.840;2022-07-25T02:09:41;21.10;72.90
64869;DHT22;51349;52.424;10.840;2022-07-25T02:14:41;20.90;73.80
64869;DHT22;51349;52.424;10.840;2022-07-25T02:19:42;21.20;72.70
64869;DHT22;51349;52.424;10.840;2022-07-25T02:24:43;21.10;73.00
64869;DHT22;51349;52.424;10.840;2022-07-25T02:29:43;21.00;73.00
64869;DHT22;51349;52.424;10.840;2022-07-25T02:34:44;20.90;73.20
64869;DHT22;51349;52.424;10.840;2022-07-25T02:39:44;20.90;73.30
64869;DHT22;51349;52.424;10.840;2022-07-25T02:44:45;20.70;74.10
64869;DHT22;51349;52.424;10.840;2022-07-25T02:49:45;20.60;74.90
64869;DHT22;51349;52.424;10.840;2022-07-25T02:54:46;20.60;74.00
64869;DHT22;51349;52.424;10.840;2022-07-25T02:59:47;20.60;74.20
64869;DHT22;51349;52.424;10.840;2022-07-25T03:04:47;20.50;74.80
64869;DHT22;51349;52.424;10.840;2022-07-25T03:09:48;20.70;73.70
64869;DHT22;51349;52.424;10.840;2022-07-25T03:14:48;20.60;74.50
64869;DHT22;51349;52.424;10.840;2022-07-25T03:19:49;20.50;74.50
64869;DHT22;51349;52.424;10.840;2022-07-25T03:24:50;20.70;74.20
64869;DHT22;51349;52.424;10.840;2022-07-25T03:29:51;20.80;73.80
64869;DHT22;51349;52.424;10.840;2022-07-25T03:34:54;20.60;74.30
64869;DHT22;51349;52.424;10.840;2022-07-25T03:39:54;20.60;74.50
64869;DHT22;51349;52.424;10.840;2022-07-25T03:44:55;20.50;74.70
64869;DHT22;51349;52.424;10.840;2022-07-25T03:49:55;20.60;74.40
64869;DHT22;51349;52.424;10.840;2022-07-25T03:54:56;20.60;74.80
64869;DHT22;51349;52.424;10.840;2022-07-25T03:59:57;20.40;75.70
64869;DHT22;51349;52.424;10.840;2022-07-25T04:04:57;20.20;76.20
64869;DHT22;51349;52.424;10.840;2022-07-25T04:09:58;20.30;76.40
64869;DHT22;51349;52.424;10.840;2022-07-25T04:14:58;20.40;75.30
64869;DHT22;51349;52.424;10.840;2022-07-25T04:19:59;20.70;75.00
64869;DHT22;51349;52.424;10.840;2022-07-25T04:25:00;20.60;75.70
64869;DHT22;51349;52.424;10.840;2022-07-25T04:30:01;20.90;74.30
64869;DHT22;51349;52.424;10.840;2022-07-25T04:35:01;20.70;75.70
64869;DHT22;51349;52.424;10.840;2022-07-25T04:40:03;20.60;76.60
64869;DHT22;51349;52.424;10.840;2022-07-25T04:45:04;20.90;76.00
64869;DHT22;51349;52.424;10.840;2022-07-25T04:50:06;20.80;78.40
64869;DHT22;51349;52.424;10.840;2022-07-25T04:55:07;20.80;78.40
64869;DHT22;51349;52.424;10.840;2022-07-25T05:00:10;20.60;81.50
64869;DHT22;51349;52.424;10.840;2022-07-25T05:05:11;20.60;82.10
64869;DHT22;51349;52.424;10.840;2022-07-25T05:10:12;20.90;80.70
64869;DHT22;51349;52.424;10.840;2022-07-25T05:15:12;21.50;76.30
64869;DHT22;51349;52.424;10.840;2022-07-25T05:20:13;22.10;74.80
64869;DHT22;51349;52.424;10.840;2022-07-25T05:25:14;22.30;75.20
64869;DHT22;51349;52.424;10.840;2022-07-25T05:30:15;22.30;74.90
64869;DHT22;51349;52.424;10.840;2022-07-25T05:35:15;22.50;74.60
64869;DHT22;51349;52.424;10.840;2022-07-25T05:40:16;23.10;72.30
64869;DHT22;51349;52.424;10.840;2022-07-25T05:45:18;23.50;71.50
64869;DHT22;51349;52.424;10.840;2022-07-25T05:50:19;23.80;71.00
64869;DHT22;51349;52.424;10.840;2022-07-25T05:55:20;24.20;69.60
64869;DHT22;51349;52.424;10.840;2022-07-25T06:00:21;24.10;70.20
64869;DHT22;51349;52.424;10.840;2022-07-25T06:05:21;24.40;70.20
64869;DHT22;51349;52.424;10.840;2022-07-25T06:10:23;24.60;70.00
64869;DHT22;51349;52.424;10.840;2022-07-25T06:15:24;24.80;69.10
64869;DHT22;51349;52.424;10.840;2022-07-25T06:20:25;24.80;69.60
64869;DHT22;51349;52.424;10.840;2022-07-25T06:25:26;25.20;69.20
64869;DHT22;51349;52.424;10.840;2022-07-25T06:30:30;25.40;68.70
64869;DHT22;51349;52.424;10.840;2022-07-25T06:35:30;25.40;69.70
64869;DHT22;51349;52.424;10.840;2022-07-25T06:40:31;25.80;68.20
64869;DHT22;51349;52.424;10.840;2022-07-25T06:45:32;26.10;67.70
64869;DHT22;51349;52.424;10.840;2022-07-25T06:50:33;26.20;68.40
64869;DHT22;51349;52.424;10.840;2022-07-25T06:55:41;26.60;67.90
64869;DHT22;51349;52.424;10.840;2022-07-25T07:00:42;26.80;68.70
64869;DHT22;51349;52.424;10.840;2022-07-25T07:05:42;27.10;66.40
64869;DHT22;51349;52.424;10.840;2022-07-25T07:10:43;27.20;66.90
64869;DHT22;51349;52.424;10.840;2022-07-25T07:15:45;27.50;65.20
64869;DHT22;51349;52.424;10.840;2022-07-25T07:20:48;27.90;65.90
64869;DHT22;51349;52.424;10.840;2022-07-25T07:25:49;28.20;65.20
64869;DHT22;51349;52.424;10.840;2022-07-25T07:30:50;28.50;65.10
64869;DHT22;51349;52.424;10.840;2022-07-25T07:35:50;29.00;64.40
64869;DHT22;51349;52.424;10.840;2022-07-25T07:40:52;29.50;63.80
64869;DHT22;51349;52.424;10.840;2022-07-25T07:45:53;29.90;62.60
64869;DHT22;51349;52.424;10.840;2022-07-25T07:50:55;30.30;62.00
64869;DHT22;51349;52.424;10.840;2022-07-25T07:55:56;30.50;63.10
64869;DHT22;51349;52.424;10.840;2022-07-25T08:00:56;31.30;61.20
64869;DHT22;51349;52.424;10.840;2022-07-25T08:05:57;31.80;59.50
64869;DHT22;51349;52.424;10.840;2022-07-25T08:10:58;32.20;60.70
64869;DHT22;51349;52.424;10.840;2022-07-25T08:16:00;32.50;58.10
64869;DHT22;51349;52.424;10.840;2022-07-25T08:21:01;32.80;57.20
64869;DHT22;51349;52.424;10.840;2022-07-25T08:26:03;32.80;56.60
64869;DHT22;51349;52.424;10.840;2022-07-25T08:31:04;33.00;55.80
64869;DHT22;51349;52.424;10.840;2022-07-25T08:36:04;33.50;57.00
64869;DHT22;51349;52.424;10.840;2022-07-25T08:41:05;33.70;55.30
64869;DHT22;51349;52.424;10.840;2022-07-25T08:46:08;33.90;55.20
64869;DHT22;51349;52.424;10.840;2022-07-25T08:51:09;33.90;54.60
64869;DHT22;51349;52.424;10.840;2022-07-25T08:56:10;34.00;54.90
64869;DHT22;51349;52.424;10.840;2022-07-25T09:01:12;34.00;55.00
64869;DHT22;51349;52.424;10.840;2022-07-25T09:06:21;33.80;55.40
64869;DHT22;51349;52.424;10.840;2022-07-25T09:11:29;34.60;53.80
64869;DHT22;51349;52.424;10.840;2022-07-25T09:16:31;34.20;55.30
64869;DHT22;51349;52.424;10.840;2022-07-25T09:21:33;34.10;54.50
64869;DHT22;51349;52.424;10.840;2022-07-25T09:26:43;34.10;54.70
64869;DHT22;51349;52.424;10.840;2022-07-25T09:31:43;33.50;55.50
64869;DHT22;51349;52.424;10.840;2022-07-25T09:36:55;32.80;56.50
64869;DHT22;51349;52.424;10.840;2022-07-25T09:41:55;32.60;56.90
64869;DHT22;51349;52.424;10.840;2022-07-25T09:46:56;33.30;56.30
64869;DHT22;51349;52.424;10.840;2022-07-25T09:52:00;33.40;57.00
64869;DHT22;51349;52.424;10.840;2022-07-25T09:57:00;33.80;56.40
64869;DHT22;51349;52.424;10.840;2022-07-25T10:02:08;33.60;56.50
64869;DHT22;51349;52.424;10.840;2022-07-25T10:07:11;33.80;56.40
64869;DHT22;51349;52.424;10.840;2022-07-25T10:12:18;34.00;56.90
64869;DHT22;51349;52.424;10.840;2022-07-25T10:17:19;34.80;55.60
64869;DHT22;51349;52.424;10.840;2022-07-25T10:22:21;34.90;55.00
64869;DHT22;51349;52.424;10.840;2022-07-25T10:27:23;35.40;54.30
64869;DHT22;51349;52.424;10.840;2022-07-25T10:32:25;35.60;54.70
64869;DHT22;51349;52.424;10.840;2022-07-25T10:37:34;35.80;55.30
64869;DHT22;51349;52.424;10.840;2022-07-25T10:42:35;35.40;55.30
64869;DHT22;51349;52.424;10.840;2022-07-25T10:47:38;35.70;54.00
64869;DHT22;51349;52.424;10.840;2022-07-25T10:52:42;35.40;53.60
64869;DHT22;51349;52.424;10.840;2022-07-25T10:57:42;34.90;54.60
64869;DHT22;51349;52.424;10.840;2022-07-25T11:02:43;35.10;54.00
64869;DHT22;51349;52.424;10.840;2022-07-25T11:07:51;34.90;55.80
64869;DHT22;51349;52.424;10.840;2022-07-25T11:12:53;35.10;55.60
64869;DHT22;51349;52.424;10.840;2022-07-25T11:18:04;34.80;54.80
64869;DHT22;51349;52.424;10.840;2022-07-25T11:23:20;34.90;54.70
64869;DHT22;51349;52.424;10.840;2022-07-25T11:28:21;34.40;56.20
64869;DHT22;51349;52.424;10.840;2022-07-25T11:33:31;34.50;54.90
64869;DHT22;51349;52.424;10.840;2022-07-25T11:38:32;34.50;55.60
64869;DHT22;51349;52.424;10.840;2022-07-25T11:43:33;34.20;55.00
64869;DHT22;51349;52.424;10.840;2022-07-25T11:48:39;34.60;55.50
64869;DHT22;51349;52.424;10.840;2022-07-25T11:53:43;34.70;55.30
64869;DHT22;51349;52.424;10.840;2022-07-25T11:58:56;34.60;54.40
64869;DHT22;51349;52.424;10.840;2022-07-25T12:04:10;34.30;55.30
64869;DHT22;51349;52.424;10.840;2022-07-25T12:09:16;34.60;55.40
64869;DHT22;51349;52.424;10.840;2022-07-25T12:14:25;34.60;54.60
64869;DHT22;51349;52.424;10.840;2022-07-25T12:19:27;34.90;54.80
64869;DHT22;51349;52.424;10.840;2022-07-25T12:24:28;34.60;54.90
64869;DHT22;51349;52.424;10.840;2022-07-25T12:29:28;34.70;54.50
64869;DHT22;51349;52.424;10.840;2022-07-25T12:34:29;34.30;54.50
64869;DHT22;51349;52.424;10.840;2022-07-25T12:39:30;34.80;55.60
64869;DHT22;51349;52.424;10.840;2022-07-25T12:44:31;34.60;55.10
64869;DHT22;51349;52.424;10.840;2022-07-25T12:49:32;34.80;54.90
64869;DHT22;51349;52.424;10.840;2022-07-25T12:54:33;34.80;53.70
64869;DHT22;51349;52.424;10.840;2022-07-25T12:59:33;34.90;52.40
64869;DHT22;51349;52.424;10.840;2022-07-25T13:04:34;34.80;52.10
64869;DHT22;51349;52.424;10.840;2022-07-25T13:09:35;34.60;51.60
64869;DHT22;51349;52.424;10.840;2022-07-25T13:14:35;34.40;52.20
64869;DHT22;51349;52.424;10.840;2022-07-25T13:19:36;34.20;52.70
64869;DHT22;51349;52.424;10.840;2022-07-25T13:24:37;34.10;52.80
64869;DHT22;51349;52.424;10.840;2022-07-25T13:29:38;34.20;52.80
64869;DHT22;51349;52.424;10.840;2022-07-25T13:34:39;33.90;53.70
64869;DHT22;51349;52.424;10.840;2022-07-25T13:39:39;33.80;53.70
64869;DHT22;51349;52.424;10.840;2022-07-25T13:44:41;33.80;53.40
64869;DHT22;51349;52.424;10.840;2022-07-25T13:49:42;33.60;54.40
64869;DHT22;51349;52.424;10.840;2022-07-25T13:54:43;33.60;54.20
64869;DHT22;51349;52.424;10.840;2022-07-25T13:59:43;33.50;53.30
64869;DHT22;51349;52.424;10.840;2022-07-25T14:04:44;33.40;53.60
64869;DHT22;51349;52.424;10.840;2022-07-25T14:09:46;33.30;54.10
64869;DHT22;51349;52.424;10.840;2022-07-25T14:14:47;33.10;54.10
64869;DHT22;51349;52.424;10.840;2022-07-25T14:19:48;32.80;54.90
64869;DHT22;51349;52.424;10.840;2022-07-25T14:24:49;32.70;55.30
64869;DHT22;51349;52.424;10.840;2022-07-25T14:29:49;32.50;55.00
64869;DHT22;51349;52.424;10.840;2022-07-25T14:34:53;32.40;57.10
64869;DHT22;51349;52.424;10.840;2022-07-25T14:39:53;32.30;56.20
64869;DHT22;51349;52.424;10.840;2022-07-25T14:44:54;32.30;56.10
64869;DHT22;51349;52.424;10.840;2022-07-25T14:49:54;32.30;56.10
64869;DHT22;51349;52.424;10.840;2022-07-25T14:54:56;32.60;56.40
64869;DHT22;51349;52.424;10.840;2022-07-25T15:00:03;32.60;56.20
64869;DHT22;51349;52.424;10.840;2022-07-25T15:05:07;32.30;56.70
64869;DHT22;51349;52.424;10.840;2022-07-25T15:10:08;32.40;57.90
64869;DHT22;51349;52.424;10.840;2022-07-25T15:15:09;32.30;57.00
64869;DHT22;51349;52.424;10.840;2022-07-25T15:20:11;32.20;56.50
64869;DHT22;51349;52.424;10.840;2022-07-25T15:25:11;32.50;56.40
64869;DHT22;51349;52.424;10.840;2022-07-25T15:30:12;32.90;57.10
64869;DHT22;51349;52.424;10.840;2022-07-25T15:35:13;33.00;56.20
64869;DHT22;51349;52.424;10.840;2022-07-25T15:40:17;32.50;56.70
64869;DHT22;51349;52.424;10.840;2022-07-25T15:45:18;32.40;56.90
64869;DHT22;51349;52.424;10.840;2022-07-25T15:50:21;32.50;56.40
64869;DHT22;51349;52.424;10.840;2022-07-25T15:55:21;32.60;57.00
64869;DHT22;51349;52.424;10.840;2022-07-25T16:00:24;32.50;57.10
64869;DHT22;51349;52.424;10.840;2022-07-25T16:05:25;32.70;56.40
64869;DHT22;51349;52.424;10.840;2022-07-25T16:10:28;32.70;56.60
64869;DHT22;51349;52.424;10.840;2022-07-25T16:15:29;32.20;57.20
64869;DHT22;51349;52.424;10.840;2022-07-25T16:20:32;32.10;57.30
64869;DHT22;51349;52.424;10.840;2022-07-25T16:25:33;32.60;57.60
64869;DHT22;51349;52.424;10.840;2022-07-25T16:30:34;32.20;57.70
64869;DHT22;51349;52.424;10.840;2022-07-25T16:35:35;31.90;57.80
64869;DHT22;51349;52.424;10.840;2022-07-25T16:40:36;31.60;58.00
64869;DHT22;51349;52.424;10.840;2022-07-25T16:45:36;31.50;58.50
64869;DHT22;51349;52.424;10.840;2022-07-25T16:50:37;31.30;58.80
64869;DHT22;51349;52.424;10.840;2022-07-25T16:55:38;31.30;58.90
64869;DHT22;51349;52.424;10.840;2022-07-25T17:00:53;31.30;59.10
64869;DHT22;51349;52.424;10.840;2022-07-25T17:05:55;30.70;63.50
64869;DHT22;51349;52.424;10.840;2022-07-25T17:10:59;28.70;71.80
64869;DHT22;51349;52.424;10.840;2022-07-25T17:15:59;27.80;77.00
64869;DHT22;51349;52.424;10.840;2022-07-25T17:21:00;27.70;80.20
64869;DHT22;51349;52.424;10.840;2022-07-25T17:26:01;27.10;87.50
64869;DHT22;51349;52.424;10.840;2022-07-25T17:31:02;27.20;88.50
64869;DHT22;51349;52.424;10.840;2022-07-25T17:36:02;26.90;88.90
64869;DHT22;51349;52.424;10.840;2022-07-25T17:41:03;26.70;89.40
64869;DHT22;51349;52.424;10.840;2022-07-25T17:46:04;26.70;89.50
64869;DHT22;51349;52.424;10.840;2022-07-25T17:51:05;26.50;90.50
64869;DHT22;51349;52.424;10.840;2022-07-25T17:56:07;25.90;91.90
64869;DHT22;51349;52.424;10.840;2022-07-25T18:01:08;25.90;92.10
64869;DHT22;51349;52.424;10.840;2022-07-25T18:06:09;25.90;91.40
64869;DHT22;51349;52.424;10.840;2022-07-25T18:11:10;25.90;91.00
64869;DHT22;51349;52.424;10.840;2022-07-25T18:16:11;25.60;91.50
64869;DHT22;51349;52.424;10.840;2022-07-25T18:21:12;25.50;91.60
64869;DHT22;51349;52.424;10.840;2022-07-25T18:26:12;25.70;91.30
64869;DHT22;51349;52.424;10.840;2022-07-25T18:31:13;25.20;91.70
64869;DHT22;51349;52.424;10.840;2022-07-25T18:36:13;24.80;91.60
64869;DHT22;51349;52.424;10.840;2022-07-25T18:41:14;25.10;91.20
64869;DHT22;51349;52.424;10.840;2022-07-25T18:46:15;24.90;91.20
64869;DHT22;51349;52.424;10.840;2022-07-25T18:51:16;24.70;91.10
64869;DHT22;51349;52.424;10.840;2022-07-25T18:56:17;24.70;91.30
64869;DHT22;51349;52.424;10.840;2022-07-25T19:01:17;24.40;92.10
64869;DHT22;51349;52.424;10.840;2022-07-25T19:06:18;24.20;92.70
64869;DHT22;51349;52.424;10.840;2022-07-25T19:11:19;24.30;92.90
64869;DHT22;51349;52.424;10.840;2022-07-25T19:16:19;23.90;93.10
64869;DHT22;51349;52.424;10.840;2022-07-25T19:21:20;24.00;92.90
64869;DHT22;51349;52.424;10.840;2022-07-25T19:26:21;23.90;94.00
64869;DHT22;51349;52.424;10.840;2022-07-25T19:31:21;23.60;99.90
64869;DHT22;51349;52.424;10.840;2022-07-25T19:36:22;23.40;99.90
64869;DHT22;51349;52.424;10.840;2022-07-25T19:41:23;23.30;99.90
64869;DHT22;51349;52.424;10.840;2022-07-25T19:46:24;22.90;99.90
64869;DHT22;51349;52.424;10.840;2022-07-25T19:51:31;22.50;99.90
64869;DHT22;51349;52.424;10.840;2022-07-25T19:56:32;22.60;99.90
64869;DHT22;51349;52.424;10.840;2022-07-25T20:01:33;22.70;99.90
64869;DHT22;51349;52.424;10.840;2022-07-25T20:06:35;22.50;99.90
64869;DHT22;51349;52.424;10.840;2022-07-25T20:11:36;22.30;99.90
64869;DHT22;51349;52.424;10.840;2022-07-25T20:16:37;22.20;99.90
64869;DHT22;51349;52.424;10.840;2022-07-25T20:21:39;22.30;99.90
64869;DHT22;51349;52.424;10.840;2022-07-25T20:26:40;22.20;99.90
64869;DHT22;51349;52.424;10.840;2022-07-25T20:31:41;22.10;99.90
64869;DHT22;51349;52.424;10.840;2022-07-25T20:36:44;22.00;99.90
64869;DHT22;51349;52.424;10.840;2022-07-25T20:41:44;22.00;99.90
64869;DHT22;51349;52.424;10.840;2022-07-25T20:46:45;21.80;99.90
64869;DHT22;51349;52.424;10.840;2022-07-25T20:51:46;21.70;99.90
64869;DHT22;51349;52.424;10.840;2022-07-25T20:56:48;21.70;99.90
64869;DHT22;51349;52.424;10.840;2022-07-25T21:01:49;21.70;99.90
64869;DHT22;51349;52.424;10.840;2022-07-25T21:06:50;21.60;99.90
64869;DHT22;51349;52.424;10.840;2022-07-25T21:11:50;21.50;99.90
64869;DHT22;51349;52.424;10.840;2022-07-25T21:16:51;21.40;99.90
64869;DHT22;51349;52.424;10.840;2022-07-25T21:21:52;21.30;99.90
64869;DHT22;51349;52.424;10.840;2022-07-25T21:26:52;21.20;99.90
64869;DHT22;51349;52.424;10.840;2022-07-25T21:31:53;21.20;99.90
64869;DHT22;51349;52.424;10.840;2022-07-25T21:36:54;21.30;99.90
64869;DHT22;51349;52.424;10.840;2022-07-25T21:41:54;21.30;99.90
64869;DHT22;51349;52.424;10.840;2022-07-25T21:46:55;21.10;99.90
64869;DHT22;51349;52.424;10.840;2022-07-25T21:51:56;21.00;99.90
64869;DHT22;51349;52.424;10.840;2022-07-25T21:56:56;20.90;99.90
64869;DHT22;51349;52.424;10.840;2022-07-25T22:01:57;20.80;99.90
64869;DHT22;51349;52.424;10.840;2022-07-25T22:06:57;20.70;99.90
64869;DHT22;51349;52.424;10.840;2022-07-25T22:11:58;20.50;99.90
64869;DHT22;51349;52.424;10.840;2022-07-25T22:16:59;20.60;99.90
64869;DHT22;51349;52.424;10.840;2022-07-25T22:22:00;20.60;99.90
64869;DHT22;51349;52.424;10.840;2022-07-25T22:27:00;20.60;99.90
64869;DHT22;51349;52.424;10.840;2022-07-25T22:32:01;20.60;99.90
64869;DHT22;51349;52.424;10.840;2022-07-25T22:37:02;20.50;99.90
64869;DHT22;51349;52.424;10.840;2022-07-25T22:42:03;20.50;99.90
64869;DHT22;51349;52.424;10.840;2022-07-25T22:47:03;20.40;99.90
64869;DHT22;51349;52.424;10.840;2022-07-25T22:52:04;20.40;99.90
64869;DHT22;51349;52.424;10.840;2022-07-25T22:57:07;20.30;99.90
64869;DHT22;51349;52.424;10.840;2022-07-25T23:02:07;20.10;99.90
64869;DHT22;51349;52.424;10.840;2022-07-25T23:07:08;20.00;99.90
64869;DHT22;51349;52.424;10.840;2022-07-25T23:12:09;19.90;99.90
64869;DHT22;51349;52.424;10.840;2022-07-25T23:17:10;19.80;99.90
64869;DHT22;51349;52.424;10.840;2022-07-25T23:22:18;19.90;99.90
64869;DHT22;51349;52.424;10.840;2022-07-25T23:27:19;20.00;99.90
64869;DHT22;51349;52.424;10.840;2022-07-25T23:32:20;20.00;99.90
64869;DHT22;51349;52.424;10.840;2022-07-25T23:37:20;19.80;99.90
64869;DHT22;51349;52.424;10.840;2022-07-25T23:42:21;19.90;99.90
64869;DHT22;51349;52.424;10.840;2022-07-25T23:47:22;19.80;99.90
64869;DHT22;51349;52.424;10.840;2022-07-25T23:52:22;19.80;99.90
64869;DHT22;51349;52.424;10.840;2022-07-25T23:57:23;19.80;99.90
